Time;durP1;ratioP1;P1;durP2;ratioP2;P2;SDS_P1;SDS_P2;PMS_P1;PMS_P2;Temp;Humidity;BMP_temperature;BMP_pressure;BME280_temperature;BME280_humidity;BME280_pressure;Samples;Min_cycle;Max_cycle;Signal;HPM_P1;HPM_P2
2022/02/18 00:00:28;;;;;;;7.30;2.88;;;;;;;;;;4981863;28;20083;-78
2022/02/18 00:02:53;;;;;;;7.47;2.97;;;;;;;;;;5014564;28;20043;-79
2022/02/18 00:05:19;;;;;;;6.38;2.92;;;;;;;;;;5007570;28;20536;-78
2022/02/18 00:07:44;;;;;;;9.38;3.45;;;;;;;;;;5000429;28;20669;-78
2022/02/18 00:10:09;;;;;;;7.82;2.72;;;;;;;;;;5015498;28;20040;-78
2022/02/18 00:12:35;;;;;;;7.80;2.58;;;;;;;;;;5031302;28;20469;-78
2022/02/18 00:15:01;;;;;;;9.07;2.95;;;;;;;;;;5029097;28;20049;-78
2022/02/18 00:17:27;;;;;;;7.25;2.80;;;;;;;;;;4996405;28;20043;-78
2022/02/18 00:19:52;;;;;;;5.65;2.45;;;;;;;;;;5014827;28;20041;-78
2022/02/18 00:22:18;;;;;;;7.35;2.58;;;;;;;;;;5014153;28;20056;-78
2022/02/18 00:24:43;;;;;;;7.40;2.92;;;;;;;;;;5014764;28;20041;-78
2022/02/18 00:27:09;;;;;;;8.48;2.38;;;;;;;;;;5014484;28;20041;-78
2022/02/18 00:29:35;;;;;;;9.35;2.80;;;;;;;;;;5015107;28;20025;-78
2022/02/18 00:32:00;;;;;;;8.23;3.20;;;;;;;;;;5022880;28;20041;-78
2022/02/18 00:34:25;;;;;;;11.40;3.60;;;;;;;;;;5031469;28;20470;-78
2022/02/18 00:36:51;;;;;;;10.10;3.42;;;;;;;;;;5020714;28;20051;-78
2022/02/18 00:39:16;;;;;;;6.72;2.63;;;;;;;;;;5019470;28;20450;-78
2022/02/18 00:41:42;;;;;;;8.63;2.95;;;;;;;;;;5020275;28;20550;-78
2022/02/18 00:44:07;;;;;;;8.07;2.58;;;;;;;;;;5016027;28;20486;-78
2022/02/18 00:46:33;;;;;;;7.30;2.50;;;;;;;;;;5009566;28;20541;-78
2022/02/18 00:48:58;;;;;;;7.50;2.65;;;;;;;;;;5003777;28;20040;-78
2022/02/18 00:51:24;;;;;;;7.47;2.83;;;;;;;;;;5019994;28;20033;-78
2022/02/18 00:53:49;;;;;;;10.07;2.97;;;;;;;;;;5003111;28;20037;-78
2022/02/18 00:56:15;;;;;;;6.78;3.05;;;;;;;;;;5003950;28;20131;-78
2022/02/18 00:58:40;;;;;;;9.13;3.10;;;;;;;;;;5016479;28;20458;-78
2022/02/18 01:01:08;;;;;;;6.25;2.67;;;;;;;;;;5013994;28;20056;-78
2022/02/18 01:03:34;;;;;;;6.30;2.22;;;;;;;;;;5020244;28;20082;-78
2022/02/18 01:05:59;;;;;;;7.88;2.85;;;;;;;;;;5020010;28;20032;-78
2022/02/18 01:08:25;;;;;;;6.80;2.90;;;;;;;;;;5019843;28;20055;-78
2022/02/18 01:10:50;;;;;;;7.85;2.53;;;;;;;;;;5019263;28;20415;-78
2022/02/18 01:13:16;;;;;;;7.82;2.92;;;;;;;;;;5019443;28;20119;-78
2022/02/18 01:15:41;;;;;;;7.05;2.58;;;;;;;;;;5019552;28;20074;-78
2022/02/18 01:18:07;;;;;;;7.15;3.03;;;;;;;;;;5032689;28;20106;-78
2022/02/18 01:20:32;;;;;;;6.43;2.33;;;;;;;;;;5016156;28;20871;-78
2022/02/18 01:22:58;;;;;;;5.50;2.22;;;;;;;;;;5019530;28;20045;-78
2022/02/18 01:25:23;;;;;;;6.93;2.70;;;;;;;;;;5019257;28;20461;-78
2022/02/18 01:27:54;;;;;;;7.45;3.03;;;;;;;;;;5015737;28;20502;-78
2022/02/18 01:30:19;;;;;;;8.45;2.63;;;;;;;;;;5008211;28;20037;-78
2022/02/18 01:32:45;;;;;;;7.03;2.13;;;;;;;;;;5015882;28;20551;-79
2022/02/18 01:35:10;;;;;;;5.05;1.83;;;;;;;;;;5015851;28;20042;-78
2022/02/18 01:37:35;;;;;;;6.32;2.20;;;;;;;;;;5016196;28;20400;-78
2022/02/18 01:40:01;;;;;;;6.93;2.80;;;;;;;;;;5016189;28;20052;-78
2022/02/18 01:42:26;;;;;;;7.93;2.60;;;;;;;;;;5001512;28;20040;-78
2022/02/18 01:44:52;;;;;;;6.38;2.33;;;;;;;;;;5002190;28;20029;-78
2022/02/18 01:47:22;;;;;;;6.10;1.98;;;;;;;;;;5019231;28;20529;-78
2022/02/18 01:49:49;;;;;;;4.68;1.98;;;;;;;;;;5019080;28;20051;-79
2022/02/18 01:52:16;;;;;;;6.78;2.10;;;;;;;;;;5019125;28;20087;-78
2022/02/18 01:54:41;;;;;;;10.07;3.42;;;;;;;;;;5035602;28;20121;-78
2022/02/18 01:57:08;;;;;;;7.40;2.65;;;;;;;;;;5002048;28;20454;-78
2022/02/18 01:59:33;;;;;;;6.70;2.92;;;;;;;;;;5035072;28;20033;-78
2022/02/18 02:01:59;;;;;;;6.20;2.70;;;;;;;;;;5012798;28;20078;-78
2022/02/18 02:04:28;;;;;;;7.22;2.42;;;;;;;;;;5015548;28;20519;-78
2022/02/18 02:07:05;;;;;;;8.20;2.50;;;;;;;;;;5025467;28;20044;-78
2022/02/18 02:09:30;;;;;;;6.50;2.53;;;;;;;;;;5019058;28;20060;-78
2022/02/18 02:11:55;;;;;;;7.28;2.13;;;;;;;;;;5015176;28;20025;-78
2022/02/18 02:14:21;;;;;;;5.43;2.10;;;;;;;;;;4998838;28;20072;-78
2022/02/18 02:16:47;;;;;;;5.13;1.95;;;;;;;;;;5007482;28;20119;-78
2022/02/18 02:19:12;;;;;;;6.28;2.47;;;;;;;;;;5018107;28;20072;-78
2022/02/18 02:21:38;;;;;;;8.88;2.97;;;;;;;;;;5034984;28;20135;-78
2022/02/18 02:24:03;;;;;;;8.52;2.75;;;;;;;;;;5018296;28;20102;-78
2022/02/18 02:26:29;;;;;;;6.97;2.88;;;;;;;;;;5017895;28;20071;-78
2022/02/18 02:28:55;;;;;;;5.57;2.40;;;;;;;;;;5001767;28;20033;-78
2022/02/18 02:31:24;;;;;;;5.53;1.90;;;;;;;;;;5018265;28;20120;-78
2022/02/18 02:33:50;;;;;;;9.25;3.08;;;;;;;;;;5018101;28;20116;-78
2022/02/18 02:36:15;;;;;;;6.25;2.15;;;;;;;;;;5018293;28;20041;-78
2022/02/18 02:38:41;;;;;;;6.45;2.55;;;;;;;;;;5018021;28;20048;-78
2022/02/18 02:41:06;;;;;;;6.15;1.90;;;;;;;;;;5006583;28;20033;-78
2022/02/18 02:43:32;;;;;;;7.50;2.72;;;;;;;;;;5017548;28;20033;-78
2022/02/18 02:45:57;;;;;;;6.20;2.20;;;;;;;;;;5014709;28;20053;-78
2022/02/18 02:48:23;;;;;;;4.80;2.15;;;;;;;;;;5017739;28;20431;-78
2022/02/18 02:50:48;;;;;;;8.05;2.25;;;;;;;;;;5018075;28;20039;-77
2022/02/18 02:53:14;;;;;;;6.63;2.17;;;;;;;;;;5013629;28;20072;-78
2022/02/18 02:55:39;;;;;;;6.35;2.35;;;;;;;;;;5014792;28;20056;-77
2022/02/18 02:58:05;;;;;;;8.88;2.80;;;;;;;;;;5023391;28;20052;-77
2022/02/18 03:00:30;;;;;;;5.88;2.22;;;;;;;;;;5034948;28;20495;-78
2022/02/18 03:02:56;;;;;;;4.85;1.63;;;;;;;;;;5014634;28;20399;-77
2022/02/18 03:05:22;;;;;;;9.57;3.10;;;;;;;;;;5029899;28;20399;-77
2022/02/18 03:07:47;;;;;;;6.30;2.65;;;;;;;;;;5016976;28;20029;-77
2022/02/18 03:10:13;;;;;;;7.28;2.22;;;;;;;;;;5017229;28;20037;-77
2022/02/18 03:12:38;;;;;;;5.43;2.17;;;;;;;;;;5016235;28;20045;-77
2022/02/18 03:15:04;;;;;;;4.88;2.13;;;;;;;;;;5017160;28;20041;-77
2022/02/18 03:17:30;;;;;;;5.90;2.03;;;;;;;;;;5017684;28;20033;-78
2022/02/18 03:19:55;;;;;;;5.53;2.13;;;;;;;;;;5017431;28;20099;-77
2022/02/18 03:22:20;;;;;;;6.70;2.00;;;;;;;;;;5033821;28;20037;-77
2022/02/18 03:24:46;;;;;;;7.22;2.22;;;;;;;;;;5033985;28;20107;-77
2022/02/18 03:27:11;;;;;;;6.15;2.40;;;;;;;;;;5034028;28;20442;-77
2022/02/18 03:29:38;;;;;;;5.50;2.00;;;;;;;;;;5017378;28;20056;-77
2022/02/18 03:32:04;;;;;;;7.25;2.53;;;;;;;;;;5000926;28;20043;-77
2022/02/18 03:34:29;;;;;;;7.18;2.10;;;;;;;;;;5013498;28;20037;-77
2022/02/18 03:36:55;;;;;;;5.78;1.65;;;;;;;;;;5005853;28;20420;-77
2022/02/18 03:39:20;;;;;;;5.07;2.10;;;;;;;;;;5033586;28;20115;-78
2022/02/18 03:41:46;;;;;;;5.93;1.75;;;;;;;;;;5017571;28;20371;-78
2022/02/18 03:44:11;;;;;;;7.40;1.98;;;;;;;;;;5017334;28;20053;-77
2022/02/18 03:46:37;;;;;;;5.90;1.98;;;;;;;;;;5017428;28;20045;-77
2022/02/18 03:49:02;;;;;;;6.05;2.03;;;;;;;;;;5017546;28;20730;-77
2022/02/18 03:51:28;;;;;;;5.65;1.55;;;;;;;;;;5017204;28;20043;-77
2022/02/18 03:53:53;;;;;;;6.53;1.75;;;;;;;;;;5016537;28;20099;-77
2022/02/18 03:56:19;;;;;;;6.03;1.38;;;;;;;;;;5016918;28;20052;-77
2022/02/18 03:58:45;;;;;;;5.80;2.05;;;;;;;;;;5000919;28;20032;-77
2022/02/18 04:01:10;;;;;;;6.72;2.00;;;;;;;;;;5016997;28;20029;-77
2022/02/18 04:03:36;;;;;;;6.53;2.10;;;;;;;;;;4996681;28;20072;-77
2022/02/18 04:06:01;;;;;;;6.50;2.30;;;;;;;;;;5031646;28;20119;-77
2022/02/18 04:08:27;;;;;;;4.70;1.73;;;;;;;;;;5021112;28;20044;-78
2022/02/18 04:10:52;;;;;;;9.65;2.80;;;;;;;;;;5001961;28;20116;-77
2022/02/18 04:13:18;;;;;;;5.63;2.15;;;;;;;;;;5017041;28;20454;-77
2022/02/18 04:15:43;;;;;;;6.22;2.05;;;;;;;;;;5001314;28;20141;-77
2022/02/18 04:18:08;;;;;;;5.95;1.90;;;;;;;;;;5001441;28;20112;-77
2022/02/18 04:20:34;;;;;;;6.30;1.67;;;;;;;;;;5001630;28;20045;-77
2022/02/18 04:22:59;;;;;;;7.82;2.28;;;;;;;;;;5000551;28;20425;-77
2022/02/18 04:25:25;;;;;;;5.90;2.20;;;;;;;;;;5001129;28;20045;-78
2022/02/18 04:27:55;;;;;;;5.28;1.75;;;;;;;;;;5015600;28;20500;-78
2022/02/18 04:30:20;;;;;;;6.20;1.83;;;;;;;;;;5001656;28;20041;-78
2022/02/18 04:32:46;;;;;;;6.43;1.83;;;;;;;;;;4987582;28;20152;-78
2022/02/18 04:35:11;;;;;;;5.60;2.15;;;;;;;;;;5020163;28;20518;-78
2022/02/18 04:37:37;;;;;;;4.32;1.80;;;;;;;;;;5020667;28;20052;-78
2022/02/18 04:40:03;;;;;;;7.53;2.42;;;;;;;;;;5020672;28;20585;-78
2022/02/18 04:42:29;;;;;;;6.38;1.70;;;;;;;;;;5037231;28;20051;-79
2022/02/18 04:44:54;;;;;;;7.47;2.80;;;;;;;;;;5020500;28;20037;-78
2022/02/18 04:47:19;;;;;;;7.05;2.20;;;;;;;;;;5020248;28;20108;-78
2022/02/18 04:49:45;;;;;;;5.20;1.48;;;;;;;;;;5019915;28;20049;-78
2022/02/18 04:52:11;;;;;;;7.38;2.33;;;;;;;;;;5020497;28;20047;-78
2022/02/18 04:54:37;;;;;;;6.28;2.22;;;;;;;;;;5020519;28;20033;-78
2022/02/18 04:57:02;;;;;;;6.63;1.92;;;;;;;;;;5020910;28;20041;-79
2022/02/18 04:59:28;;;;;;;7.28;2.78;;;;;;;;;;5020472;28;20064;-78
2022/02/18 05:01:53;;;;;;;7.65;2.60;;;;;;;;;;5003633;28;20112;-78
2022/02/18 05:04:19;;;;;;;5.20;2.00;;;;;;;;;;5036008;28;20037;-78
2022/02/18 05:06:44;;;;;;;5.72;1.55;;;;;;;;;;5036278;28;20384;-79
2022/02/18 05:09:11;;;;;;;5.97;2.30;;;;;;;;;;5019685;28;20056;-78
2022/02/18 05:11:36;;;;;;;7.80;2.25;;;;;;;;;;5019574;28;20037;-78
2022/02/18 05:14:02;;;;;;;5.47;1.65;;;;;;;;;;5036015;28;20052;-78
2022/02/18 05:16:27;;;;;;;6.75;2.88;;;;;;;;;;5019771;28;20112;-78
2022/02/18 05:18:55;;;;;;;6.78;2.22;;;;;;;;;;5019502;28;20051;-78
2022/02/18 05:21:22;;;;;;;5.65;1.92;;;;;;;;;;5020385;28;20045;-78
2022/02/18 05:23:47;;;;;;;6.13;2.20;;;;;;;;;;5019380;28;20025;-78
2022/02/18 05:26:13;;;;;;;6.50;2.20;;;;;;;;;;5019956;28;20051;-78
2022/02/18 05:28:38;;;;;;;6.97;1.75;;;;;;;;;;5019836;28;20067;-77
2022/02/18 05:31:04;;;;;;;5.72;2.17;;;;;;;;;;5036266;28;20107;-78
2022/02/18 05:33:29;;;;;;;7.25;1.77;;;;;;;;;;5034680;28;20059;-78
2022/02/18 05:35:54;;;;;;;5.93;2.75;;;;;;;;;;5003017;28;20687;-78
2022/02/18 05:38:20;;;;;;;6.78;1.92;;;;;;;;;;5003155;28;20044;-78
2022/02/18 05:40:45;;;;;;;6.30;2.10;;;;;;;;;;5019160;28;20042;-78
2022/02/18 05:43:11;;;;;;;6.20;2.55;;;;;;;;;;5019356;28;20069;-78
2022/02/18 05:45:36;;;;;;;5.47;1.92;;;;;;;;;;5035759;28;20057;-78
2022/02/18 05:48:02;;;;;;;6.68;2.10;;;;;;;;;;5002916;28;20033;-78
2022/02/18 05:50:27;;;;;;;8.10;2.58;;;;;;;;;;5019280;28;20060;-78
2022/02/18 05:52:54;;;;;;;5.60;1.98;;;;;;;;;;5019319;28;20041;-78
2022/02/18 05:55:19;;;;;;;6.50;1.92;;;;;;;;;;5018705;28;20048;-78
2022/02/18 05:57:45;;;;;;;9.32;2.05;;;;;;;;;;5015211;28;20407;-78
2022/02/18 06:00:11;;;;;;;5.72;1.88;;;;;;;;;;5002775;28;20423;-78
2022/02/18 06:02:36;;;;;;;9.90;2.58;;;;;;;;;;4999051;28;20096;-76
2022/02/18 06:05:02;;;;;;;7.10;2.08;;;;;;;;;;5031563;28;20458;-77
2022/02/18 06:07:29;;;;;;;7.10;2.45;;;;;;;;;;5021452;28;20041;-76
2022/02/18 06:09:54;;;;;;;6.15;2.00;;;;;;;;;;5052119;28;20407;-79
2022/02/18 06:12:20;;;;;;;8.00;2.45;;;;;;;;;;5019155;28;20047;-79
2022/02/18 06:14:49;;;;;;;5.50;1.50;;;;;;;;;;5018344;28;20041;-79
2022/02/18 06:17:21;;;;;;;7.00;1.98;;;;;;;;;;5020157;28;20029;-80
2022/02/18 06:19:47;;;;;;;5.82;1.77;;;;;;;;;;5019623;28;20037;-80
2022/02/18 06:22:12;;;;;;;5.90;1.95;;;;;;;;;;5035243;28;20384;-80
2022/02/18 06:24:38;;;;;;;7.90;2.72;;;;;;;;;;5017835;28;20036;-80
2022/02/18 06:27:04;;;;;;;6.35;1.73;;;;;;;;;;5016676;28;20118;-80
2022/02/18 06:29:30;;;;;;;6.20;1.98;;;;;;;;;;5015442;28;20060;-80
2022/02/18 06:31:57;;;;;;;6.72;1.65;;;;;;;;;;5017279;28;20039;-80
2022/02/18 06:34:23;;;;;;;5.85;2.00;;;;;;;;;;5007739;28;20029;-78
2022/02/18 06:36:51;;;;;;;7.85;2.33;;;;;;;;;;5017194;28;20565;-77
2022/02/18 06:39:17;;;;;;;5.88;2.40;;;;;;;;;;5030668;28;20047;-77
2022/02/18 06:41:42;;;;;;;7.95;2.15;;;;;;;;;;5015852;28;20108;-77
2022/02/18 06:44:09;;;;;;;8.90;2.40;;;;;;;;;;5015102;28;20100;-78
2022/02/18 06:46:34;;;;;;;9.40;3.03;;;;;;;;;;5032473;28;20033;-77
2022/02/18 06:49:00;;;;;;;7.80;2.25;;;;;;;;;;5032460;28;20537;-77
2022/02/18 06:51:25;;;;;;;11.45;3.90;;;;;;;;;;5017667;28;20036;-78
2022/02/18 06:53:50;;;;;;;11.10;3.15;;;;;;;;;;5001696;28;20029;-78
2022/02/18 06:56:16;;;;;;;11.40;2.88;;;;;;;;;;5018104;28;20033;-78
2022/02/18 06:58:42;;;;;;;11.73;2.80;;;;;;;;;;5007521;28;20116;-78
2022/02/18 07:01:07;;;;;;;10.20;2.67;;;;;;;;;;5017197;28;20025;-77
2022/02/18 07:03:33;;;;;;;12.35;4.90;;;;;;;;;;5017344;28;20491;-78
2022/02/18 07:06:02;;;;;;;12.00;4.85;;;;;;;;;;5034185;28;20041;-78
2022/02/18 07:08:28;;;;;;;9.65;3.35;;;;;;;;;;5035029;28;20037;-78
2022/02/18 07:10:54;;;;;;;10.63;3.40;;;;;;;;;;5050652;28;20056;-78
2022/02/18 07:13:19;;;;;;;10.13;3.53;;;;;;;;;;5001169;28;20076;-77
2022/02/18 07:15:45;;;;;;;11.48;4.22;;;;;;;;;;5034004;28;20128;-79
2022/02/18 07:18:11;;;;;;;8.75;3.13;;;;;;;;;;5017423;28;20487;-79
2022/02/18 07:20:36;;;;;;;11.82;3.47;;;;;;;;;;5001527;28;20115;-79
2022/02/18 07:23:03;;;;;;;7.18;3.00;;;;;;;;;;5017939;28;20036;-79
2022/02/18 07:25:28;;;;;;;11.90;5.00;;;;;;;;;;5016488;28;20060;-79
2022/02/18 07:27:54;;;;;;;14.27;3.38;;;;;;;;;;5016649;28;20037;-78
2022/02/18 07:30:19;;;;;;;9.40;3.08;;;;;;;;;;5016470;28;20029;-78
2022/02/18 07:32:44;;;;;;;7.45;2.80;;;;;;;;;;5034191;28;20171;-78
2022/02/18 07:35:10;;;;;;;12.45;3.15;;;;;;;;;;5033802;28;20036;-78
2022/02/18 07:37:35;;;;;;;5.68;2.03;;;;;;;;;;5016801;28;20049;-78
2022/02/18 07:40:01;;;;;;;8.68;2.70;;;;;;;;;;5029808;28;20036;-78
2022/02/18 07:42:26;;;;;;;11.63;2.67;;;;;;;;;;5014221;28;20037;-78
2022/02/18 07:44:51;;;;;;;11.00;3.25;;;;;;;;;;5013366;28;20120;-78
2022/02/18 07:47:17;;;;;;;10.70;2.13;;;;;;;;;;5013754;28;20044;-81
2022/02/18 07:49:43;;;;;;;11.07;2.25;;;;;;;;;;5000278;28;20032;-80
2022/02/18 07:52:09;;;;;;;7.57;2.00;;;;;;;;;;5017737;28;20060;-79
2022/02/18 07:54:35;;;;;;;9.95;2.80;;;;;;;;;;5016139;28;20487;-79
2022/02/18 07:57:00;;;;;;;11.30;2.65;;;;;;;;;;5033425;28;20455;-80
2022/02/18 07:59:26;;;;;;;8.48;2.42;;;;;;;;;;4999996;28;20045;-80
2022/02/18 08:01:51;;;;;;;5.97;2.20;;;;;;;;;;5007087;28;20401;-79
2022/02/18 08:04:16;;;;;;;8.30;2.03;;;;;;;;;;5012837;28;20415;-78
2022/02/18 08:06:42;;;;;;;7.75;2.70;;;;;;;;;;5000046;28;20042;-79
2022/02/18 08:09:07;;;;;;;6.43;1.92;;;;;;;;;;5011467;28;20046;-78
2022/02/18 08:11:33;;;;;;;5.70;2.05;;;;;;;;;;5016192;28;20071;-78
2022/02/18 08:13:59;;;;;;;5.18;2.03;;;;;;;;;;4998878;28;20033;-78
2022/02/18 08:16:24;;;;;;;7.60;2.20;;;;;;;;;;5024239;28;20041;-78
2022/02/18 08:18:50;;;;;;;8.65;2.17;;;;;;;;;;5012657;28;20037;-76
2022/02/18 08:21:16;;;;;;;4.50;1.83;;;;;;;;;;5014901;28;20036;-76
2022/02/18 08:23:41;;;;;;;4.55;1.95;;;;;;;;;;4999322;28;20040;-75
2022/02/18 08:26:07;;;;;;;4.47;1.50;;;;;;;;;;5033059;28;20471;-77
2022/02/18 08:28:32;;;;;;;6.40;1.95;;;;;;;;;;4999063;28;20083;-76
2022/02/18 08:30:58;;;;;;;6.07;1.60;;;;;;;;;;5016469;28;20040;-77
2022/02/18 08:33:23;;;;;;;5.65;1.92;;;;;;;;;;5016300;28;20033;-77
2022/02/18 08:35:48;;;;;;;4.25;1.27;;;;;;;;;;5032907;28;20099;-77
2022/02/18 08:38:14;;;;;;;5.47;1.83;;;;;;;;;;5016925;28;20466;-77
2022/02/18 08:40:39;;;;;;;5.40;1.60;;;;;;;;;;5013056;28;20033;-77
2022/02/18 08:43:06;;;;;;;5.45;1.95;;;;;;;;;;5012952;28;20033;-77
2022/02/18 08:45:32;;;;;;;4.50;1.40;;;;;;;;;;4997366;28;20045;-77
2022/02/18 08:47:57;;;;;;;3.80;1.48;;;;;;;;;;4997111;28;20030;-77
2022/02/18 08:50:23;;;;;;;3.42;1.45;;;;;;;;;;5006928;28;20045;-77
2022/02/18 08:52:49;;;;;;;4.63;1.40;;;;;;;;;;5020490;28;20469;-77
2022/02/18 08:55:15;;;;;;;3.45;0.93;;;;;;;;;;5004209;28;20040;-77
2022/02/18 08:57:46;;;;;;;4.80;2.00;;;;;;;;;;5003764;28;20041;-77
2022/02/18 09:00:12;;;;;;;5.05;1.40;;;;;;;;;;5036927;28;20058;-77
2022/02/18 09:02:38;;;;;;;3.05;1.88;;;;;;;;;;5020187;28;20056;-78
2022/02/18 09:05:04;;;;;;;2.15;0.90;;;;;;;;;;5003910;28;20037;-78
2022/02/18 09:07:30;;;;;;;3.38;1.35;;;;;;;;;;5003985;28;20029;-78
2022/02/18 09:09:58;;;;;;;4.28;1.25;;;;;;;;;;5003746;28;20099;-78
2022/02/18 09:12:24;;;;;;;4.30;1.40;;;;;;;;;;5020461;28;20126;-78
2022/02/18 09:14:49;;;;;;;2.95;1.35;;;;;;;;;;5003679;28;20044;-78
2022/02/18 09:17:15;;;;;;;3.60;1.10;;;;;;;;;;5019760;28;20045;-78
2022/02/18 09:19:40;;;;;;;3.20;0.82;;;;;;;;;;5019115;28;20048;-77
2022/02/18 09:22:05;;;;;;;4.13;1.23;;;;;;;;;;5018787;28;20039;-76
2022/02/18 09:24:31;;;;;;;4.63;1.35;;;;;;;;;;5018639;28;20465;-76
2022/02/18 09:26:57;;;;;;;7.55;1.30;;;;;;;;;;5053022;28;20273;-76
2022/02/18 09:29:22;;;;;;;4.47;1.08;;;;;;;;;;5001250;28;20070;-76
2022/02/18 09:31:48;;;;;;;4.72;0.90;;;;;;;;;;5001989;28;20155;-76
2022/02/18 09:34:13;;;;;;;2.13;0.80;;;;;;;;;;5032556;28;20044;-75
2022/02/18 09:36:39;;;;;;;2.92;0.93;;;;;;;;;;4998119;28;20045;-76
2022/02/18 09:39:05;;;;;;;3.38;0.93;;;;;;;;;;5008181;28;20407;-75
2022/02/18 09:41:30;;;;;;;2.22;0.98;;;;;;;;;;5034194;28;20040;-75
2022/02/18 09:43:56;;;;;;;4.05;1.10;;;;;;;;;;5034412;28;20041;-76
2022/02/18 09:46:22;;;;;;;2.58;0.90;;;;;;;;;;5019468;28;20065;-76
2022/02/18 09:48:47;;;;;;;3.35;0.82;;;;;;;;;;5019576;28;20044;-75
2022/02/18 09:51:15;;;;;;;3.28;0.90;;;;;;;;;;5035361;28;20044;-75
2022/02/18 09:53:41;;;;;;;1.90;0.60;;;;;;;;;;5018379;28;20032;-75
2022/02/18 09:56:07;;;;;;;3.28;0.77;;;;;;;;;;5001902;28;20407;-76
2022/02/18 09:58:35;;;;;;;1.63;0.57;;;;;;;;;;5019051;28;20037;-75
2022/02/18 10:01:00;;;;;;;2.13;0.60;;;;;;;;;;5035117;28;20103;-75
2022/02/18 10:03:26;;;;;;;1.63;0.60;;;;;;;;;;5034032;28;20075;-75
2022/02/18 10:05:51;;;;;;;3.13;0.50;;;;;;;;;;5035246;28;20471;-75
2022/02/18 10:08:18;;;;;;;2.83;0.90;;;;;;;;;;5052838;28;20137;-75
2022/02/18 10:11:03;;;;;;;2.63;1.20;;;;;;;;;;5035131;28;20395;-75
2022/02/18 10:13:38;;;;;;;2.40;0.70;;;;;;;;;;5019819;28;20036;-75
2022/02/18 10:16:05;;;;;;;1.50;0.50;;;;;;;;;;5019201;28;20049;-76
2022/02/18 10:18:53;;;;;;;3.70;1.23;;;;;;;;;;5018648;28;20033;-76
2022/02/18 10:21:26;;;;;;;13.15;8.70;;;;;;;;;;5019886;28;20032;-76
2022/02/18 10:23:52;;;;;;;22.77;16.25;;;;;;;;;;5002467;28;20044;-76
2022/02/18 10:26:32;;;;;;;36.58;24.23;;;;;;;;;;5018755;28;20044;-76
2022/02/18 10:28:58;;;;;;;43.20;28.80;;;;;;;;;;5035335;28;20064;-76
2022/02/18 10:31:23;;;;;;;41.72;28.55;;;;;;;;;;5035067;28;20491;-76
2022/02/18 10:34:08;;;;;;;41.78;28.48;;;;;;;;;;5018273;28;20040;-76
2022/02/18 10:36:44;;;;;;;38.53;27.90;;;;;;;;;;5034416;28;20107;-76
2022/02/18 10:39:28;;;;;;;37.53;25.25;;;;;;;;;;5017875;28;20047;-76
2022/02/18 10:41:57;;;;;;;37.00;25.45;;;;;;;;;;5035060;28;20095;-76
2022/02/18 10:44:25;;;;;;;37.65;24.40;;;;;;;;;;5034693;28;20052;-76
2022/02/18 10:46:55;;;;;;;32.90;23.15;;;;;;;;;;5034612;28;20515;-76
2022/02/18 10:49:32;;;;;;;34.65;23.60;;;;;;;;;;5035809;28;20040;-75
2022/02/18 10:52:03;;;;;;;31.98;21.83;;;;;;;;;;5019563;28;20029;-75
2022/02/18 10:54:33;;;;;;;29.90;20.67;;;;;;;;;;5019062;28;20419;-75
2022/02/18 10:57:20;;;;;;;28.52;20.83;;;;;;;;;;5035074;28;20029;-76
2022/02/18 10:59:46;;;;;;;27.08;18.35;;;;;;;;;;5017914;28;20040;-76
2022/02/18 11:02:12;;;;;;;29.17;18.65;;;;;;;;;;5017769;28;20037;-76
2022/02/18 11:04:37;;;;;;;25.48;16.60;;;;;;;;;;5001134;28;20025;-76
2022/02/18 11:07:13;;;;;;;25.25;16.48;;;;;;;;;;5052416;28;20065;-75
2022/02/18 11:09:39;;;;;;;23.20;15.48;;;;;;;;;;5001478;28;20041;-76
2022/02/18 11:12:08;;;;;;;21.48;14.55;;;;;;;;;;5001533;28;20040;-75
2022/02/18 11:14:35;;;;;;;21.58;14.88;;;;;;;;;;5005604;28;20507;-75
2022/02/18 11:17:00;;;;;;;21.88;14.35;;;;;;;;;;5051888;28;20049;-76
2022/02/18 11:19:26;;;;;;;19.77;13.82;;;;;;;;;;5017278;28;20095;-76
2022/02/18 11:21:51;;;;;;;19.90;13.35;;;;;;;;;;5017275;28;20522;-76
2022/02/18 11:24:17;;;;;;;19.13;12.32;;;;;;;;;;5001388;28;20518;-75
2022/02/18 11:26:45;;;;;;;15.40;10.80;;;;;;;;;;5017540;28;20495;-75
2022/02/18 11:29:12;;;;;;;15.88;11.32;;;;;;;;;;5034272;28;20115;-76
2022/02/18 11:31:49;;;;;;;15.80;10.88;;;;;;;;;;5033619;28;20044;-76
2022/02/18 11:34:35;;;;;;;16.83;10.80;;;;;;;;;;5017913;28;20058;-75
2022/02/18 11:37:22;;;;;;;15.10;10.35;;;;;;;;;;5030292;28;20044;-76
2022/02/18 11:40:11;;;;;;;15.48;10.65;;;;;;;;;;5031492;28;20037;-75
2022/02/18 11:43:05;;;;;;;13.38;9.25;;;;;;;;;;4997377;28;20037;-75
2022/02/18 11:45:30;;;;;;;17.95;9.73;;;;;;;;;;5013455;28;20037;-75
2022/02/18 11:47:56;;;;;;;11.98;7.88;;;;;;;;;;4997036;28;20041;-75
2022/02/18 11:50:26;;;;;;;10.88;7.80;;;;;;;;;;5012986;28;20038;-75
2022/02/18 11:52:52;;;;;;;12.38;7.47;;;;;;;;;;5013587;28;20044;-75
2022/02/18 11:55:28;;;;;;;20.00;14.63;;;;;;;;;;5013346;28;20117;-75
2022/02/18 11:58:03;;;;;;;37.95;27.33;;;;;;;;;;4981669;28;20064;-76
2022/02/18 12:00:41;;;;;;;57.05;37.70;;;;;;;;;;5050680;28;20499;-75
2022/02/18 12:03:23;;;;;;;56.40;39.67;;;;;;;;;;5032869;28;20037;-76
2022/02/18 12:06:12;;;;;;;55.05;40.05;;;;;;;;;;5032363;28;20036;-76
2022/02/18 12:08:41;;;;;;;58.97;41.72;;;;;;;;;;5050658;28;20108;-76
2022/02/18 12:11:17;;;;;;;55.10;38.53;;;;;;;;;;5016650;28;20116;-76
2022/02/18 12:13:52;;;;;;;54.47;39.25;;;;;;;;;;5016209;28;20033;-76
2022/02/18 12:16:18;;;;;;;47.97;33.30;;;;;;;;;;5016355;28;20044;-76
2022/02/18 12:19:10;;;;;;;45.13;33.50;;;;;;;;;;5016137;28;20041;-75
2022/02/18 12:21:57;;;;;;;48.78;32.25;;;;;;;;;;5017600;28;20566;-75
2022/02/18 12:24:41;;;;;;;43.60;31.98;;;;;;;;;;5050150;28;20094;-75
2022/02/18 12:27:18;;;;;;;42.20;31.38;;;;;;;;;;5036197;28;20047;-75
2022/02/18 12:29:44;;;;;;;43.13;31.67;;;;;;;;;;5052465;28;20530;-75
2022/02/18 12:32:10;;;;;;;39.83;29.55;;;;;;;;;;5003128;28;20053;-76
2022/02/18 12:34:35;;;;;;;44.30;30.95;;;;;;;;;;5018900;28;20033;-75
2022/02/18 12:37:00;;;;;;;37.10;28.00;;;;;;;;;;5053547;28;20037;-75
2022/02/18 12:39:38;;;;;;;40.35;28.75;;;;;;;;;;5019230;28;20186;-75
2022/02/18 12:42:10;;;;;;;40.95;28.80;;;;;;;;;;5053861;28;20040;-76
2022/02/18 12:46:32;;;;;;;37.67;28.02;;;;;;;;;;5068776;28;20604;-76
2022/02/18 12:48:58;;;;;;;38.55;26.35;;;;;;;;;;5067331;28;20120;-76
2022/02/18 12:51:25;;;;;;;37.63;26.95;;;;;;;;;;5051115;28;20052;-77
2022/02/18 12:53:51;;;;;;;36.67;25.30;;;;;;;;;;5050971;28;20040;-77
2022/02/18 12:56:22;;;;;;;34.05;23.75;;;;;;;;;;5034606;28;20036;-77
2022/02/18 12:58:55;;;;;;;33.08;23.08;;;;;;;;;;5067488;28;20112;-76
2022/02/18 13:01:21;;;;;;;31.42;22.73;;;;;;;;;;5067601;28;20082;-76
2022/02/18 13:03:47;;;;;;;28.42;20.85;;;;;;;;;;5067164;28;20041;-76
2022/02/18 13:06:12;;;;;;;30.70;20.67;;;;;;;;;;5067504;28;20028;-76
2022/02/18 13:08:37;;;;;;;27.35;19.38;;;;;;;;;;5034188;28;20508;-76
2022/02/18 13:11:14;;;;;;;24.73;17.23;;;;;;;;;;5033995;28;20294;-76
2022/02/18 13:13:39;;;;;;;22.65;15.68;;;;;;;;;;5067134;28;20039;-76
2022/02/18 13:16:05;;;;;;;23.05;16.52;;;;;;;;;;5050314;28;20044;-76
2022/02/18 13:18:30;;;;;;;22.70;15.63;;;;;;;;;;5050129;28;20036;-76
2022/02/18 13:20:56;;;;;;;20.45;14.35;;;;;;;;;;5067013;28;20037;-76
2022/02/18 13:23:25;;;;;;;21.75;14.90;;;;;;;;;;5034041;28;20025;-76
2022/02/18 13:25:53;;;;;;;23.23;14.98;;;;;;;;;;5066887;28;20033;-76
2022/02/18 13:28:26;;;;;;;18.85;13.52;;;;;;;;;;5068237;28;20388;-76
2022/02/18 13:30:54;;;;;;;21.00;15.35;;;;;;;;;;5066706;28;20456;-76
2022/02/18 13:33:35;;;;;;;25.20;18.80;;;;;;;;;;5049901;28;20044;-77
2022/02/18 13:36:08;;;;;;;31.30;22.58;;;;;;;;;;5066465;28;20055;-77
2022/02/18 13:38:36;;;;;;;40.58;28.13;;;;;;;;;;5047143;28;20499;-77
2022/02/18 13:41:21;;;;;;;40.92;29.92;;;;;;;;;;5046529;28;20033;-79
2022/02/18 13:43:53;;;;;;;41.33;29.35;;;;;;;;;;5047106;28;20062;-77
2022/02/18 13:46:32;;;;;;;42.50;29.00;;;;;;;;;;5045924;28;20488;-77
2022/02/18 13:49:08;;;;;;;41.55;28.45;;;;;;;;;;5046807;28;20033;-76
2022/02/18 13:51:39;;;;;;;40.80;28.40;;;;;;;;;;5046521;28;20044;-77
2022/02/18 13:54:04;;;;;;;41.40;28.30;;;;;;;;;;5030157;28;20029;-76
2022/02/18 13:56:31;;;;;;;38.72;26.33;;;;;;;;;;5041047;28;20060;-77
2022/02/18 13:59:15;;;;;;;35.60;26.42;;;;;;;;;;5042286;28;20033;-76
2022/02/18 14:01:41;;;;;;;33.95;23.52;;;;;;;;;;5036195;28;20052;-76
2022/02/18 14:04:06;;;;;;;34.83;25.80;;;;;;;;;;5053929;28;20037;-77
2022/02/18 14:06:31;;;;;;;34.72;23.52;;;;;;;;;;5036401;28;20079;-76
2022/02/18 14:08:58;;;;;;;33.20;21.70;;;;;;;;;;5036208;28;20470;-76
2022/02/18 14:11:23;;;;;;;35.22;22.85;;;;;;;;;;5020059;28;20123;-76
2022/02/18 14:13:49;;;;;;;29.83;20.70;;;;;;;;;;5036260;28;20052;-76
2022/02/18 14:16:15;;;;;;;30.48;20.17;;;;;;;;;;5019589;28;20089;-76
2022/02/18 14:18:53;;;;;;;28.60;19.00;;;;;;;;;;5036017;28;20063;-77
2022/02/18 14:21:30;;;;;;;25.90;18.10;;;;;;;;;;5053231;28;20060;-76
2022/02/18 14:23:57;;;;;;;26.75;18.40;;;;;;;;;;5019720;28;20037;-76
2022/02/18 14:26:26;;;;;;;28.05;18.38;;;;;;;;;;5036421;28;20029;-77
2022/02/18 14:28:52;;;;;;;26.08;18.67;;;;;;;;;;5050208;28;20032;-77
2022/02/18 14:31:28;;;;;;;28.75;16.85;;;;;;;;;;5053534;28;20120;-77
2022/02/18 14:34:05;;;;;;;24.65;16.80;;;;;;;;;;5019568;28;20056;-76
2022/02/18 14:36:31;;;;;;;22.73;15.90;;;;;;;;;;5049658;28;20037;-77
2022/02/18 14:38:56;;;;;;;22.23;14.82;;;;;;;;;;5035503;28;20452;-77